Time;durP1;ratioP1;P1;durP2;ratioP2;P2;SDS_P1;SDS_P2;PMS_P1;PMS_P2;Temp;Humidity;BMP_temperature;BMP_pressure;BME280_temperature;BME280_humidity;BME280_pressure;Samples;Min_cycle;Max_cycle;Signal;HPM_P1;HPM_P2
2023/12/14 00:13:09;;;;;;;69.50;28.80;;;;;;;6.50;90.03;99541.79;676877;1263;139922;-87
2023/12/14 00:28:45;;;;;;;86.00;35.30;;;;;;;6.50;90.41;99548.84;678362;1264;140371;-86
2023/12/14 00:44:30;;;;;;;58.90;25.30;;;;;;;6.55;90.32;99568.81;680435;1261;140301;-87
2023/12/14 01:00:07;;;;;;;61.40;22.80;;;;;;;6.50;90.06;99569.58;680500;1263;139007;-85
2023/12/14 01:15:44;;;;;;;56.60;22.00;;;;;;;6.38;90.10;99578.70;677061;1260;140534;-86
2023/12/14 01:31:24;;;;;;;56.10;24.80;;;;;;;6.38;90.02;99593.08;676663;1263;139955;-86
2023/12/14 01:47:01;;;;;;;55.70;19.40;;;;;;;6.17;90.57;99594.77;673951;1263;139717;-87
2023/12/14 02:02:40;;;;;;;49.30;19.20;;;;;;;4.85;97.73;99610.16;675996;1273;139612;-86
2023/12/14 02:18:17;;;;;;;44.10;18.20;;;;;;;4.68;99.38;99608.63;680259;1263;139239;-88
2023/12/14 02:33:54;;;;;;;44.70;16.30;;;;;;;5.68;94.23;99609.74;670992;1263;10139255;-86
2023/12/14 02:49:31;;;;;;;51.80;15.40;;;;;;;5.72;92.25;99615.00;675710;1271;140143;-86
2023/12/14 03:05:08;;;;;;;58.90;19.40;;;;;;;5.76;91.79;99620.01;676719;1264;139599;-86
2023/12/14 03:20:45;;;;;;;48.10;15.50;;;;;;;5.78;90.99;99625.92;674544;1263;139779;-86
2023/12/14 03:36:26;;;;;;;45.70;16.40;;;;;;;5.76;90.53;99633.73;673931;1261;139304;-86
2023/12/14 03:52:03;;;;;;;49.80;19.70;;;;;;;5.75;90.83;99640.11;676683;1260;139460;-86
2023/12/14 04:07:40;;;;;;;47.10;15.30;;;;;;;5.57;91.14;99652.91;679975;1272;141122;-87
2023/12/14 04:23:18;;;;;;;;;;;;;;;5.58;91.21;99664.42;674652;1264;139515;-86
2023/12/14 04:38:55;;;;;;;151.90;48.00;;;;;;;5.47;90.80;99671.58;676965;1271;124953;-85
2023/12/14 04:54:32;;;;;;;55.80;17.30;;;;;;;5.46;90.77;99679.61;674683;1261;139294;-85
2023/12/14 05:10:10;;;;;;;43.50;14.60;;;;;;;5.59;91.08;99688.70;676555;1263;139983;-85
2023/12/14 05:25:47;;;;;;;45.90;19.00;;;;;;;5.61;90.39;99719.70;676714;1273;139745;-85
2023/12/14 05:41:23;;;;;;;51.90;18.60;;;;;;;5.56;90.43;99742.46;676015;1260;139319;-85
2023/12/14 05:57:00;;;;;;;46.70;19.40;;;;;;;5.60;89.88;99753.50;682426;1262;139602;-87
2023/12/14 06:12:37;;;;;;;52.50;21.30;;;;;;;5.61;89.92;99776.52;682440;1261;139111;-86
2023/12/14 06:28:14;;;;;;;51.60;19.70;;;;;;;5.62;89.83;99784.75;681912;1263;139265;-86
2023/12/14 06:43:52;;;;;;;50.80;19.50;;;;;;;5.55;89.50;99788.36;681769;1261;139190;-87
2023/12/14 06:59:29;;;;;;;72.80;27.10;;;;;;;5.48;89.29;99795.81;682119;1262;138842;-87
2023/12/14 07:15:06;;;;;;;67.40;22.20;;;;;;;5.37;89.52;99809.28;681751;1261;139066;-86
2023/12/14 07:30:44;;;;;;;180.30;54.60;;;;;;;5.37;89.34;99823.35;681341;1261;139156;-86
2023/12/14 07:46:21;;;;;;;58.90;24.70;;;;;;;5.36;89.44;99842.33;682094;1259;138975;-86
2023/12/14 08:01:59;;;;;;;105.20;43.10;;;;;;;5.38;89.72;99870.11;682115;1260;138967;-85
2023/12/14 08:17:36;;;;;;;86.10;32.20;;;;;;;5.48;89.42;99893.84;682130;1262;139194;-87
2023/12/14 08:33:13;;;;;;;75.70;27.50;;;;;;;5.46;88.86;99911.52;682197;1258;141418;-87
2023/12/14 08:48:50;;;;;;;225.20;81.60;;;;;;;5.43;89.66;99937.40;682173;1260;138791;-88
2023/12/14 09:04:27;;;;;;;91.40;36.40;;;;;;;5.39;89.53;99969.05;682296;1262;139182;-87
2023/12/14 09:20:05;;;;;;;70.60;26.80;;;;;;;5.38;89.58;99976.20;682304;1260;139729;-87
2023/12/14 09:35:43;;;;;;;;;;;;;;;5.40;89.24;99985.65;681962;1260;139846;-86
2023/12/14 09:51:20;;;;;;;61.50;25.50;;;;;;;5.37;88.38;99993.66;682144;1263;124578;-86
2023/12/14 10:06:57;;;;;;;61.70;25.90;;;;;;;5.41;89.15;100000.48;682521;1260;139247;-86
2023/12/14 10:22:37;;;;;;;109.20;42.50;;;;;;;5.47;88.84;100007.36;682283;1262;139181;-86
2023/12/14 10:38:14;;;;;;;89.20;35.60;;;;;;;5.51;88.75;100018.64;682138;1259;139067;-88
2023/12/14 10:53:57;;;;;;;;;;;;;;;5.55;88.99;100029.81;682801;1260;22498;-87
2023/12/14 11:09:41;;;;;;;;;;;;;;;5.50;88.65;100047.86;682847;1260;22309;-85
2023/12/14 11:25:17;;;;;;;40.80;17.50;;;;;;;5.63;88.63;100066.05;682607;1262;22426;-86
2023/12/14 11:41:25;;;;;;;39.20;18.00;;;;;;;5.70;87.65;100077.90;682587;1260;140591;-86
2023/12/14 11:57:14;;;;;;;33.30;15.30;;;;;;;5.79;87.83;100098.64;682649;1260;139358;-87
2023/12/14 12:13:18;;;;;;;42.70;19.40;;;;;;;5.78;87.80;100103.19;682698;1260;138505;-85
2023/12/14 12:28:59;;;;;;;36.20;16.80;;;;;;;5.79;88.05;100119.92;682585;1259;23476;-87
2023/12/14 12:44:36;;;;;;;38.70;16.70;;;;;;;5.77;87.50;100139.01;682527;1262;22337;-87
2023/12/14 13:00:13;;;;;;;41.90;21.10;;;;;;;5.81;87.13;100148.77;682499;1263;22296;-86
2023/12/14 13:15:50;;;;;;;27.90;15.00;;;;;;;5.76;86.94;100164.41;682825;1262;22239;-85
2023/12/14 13:31:27;;;;;;;39.90;16.90;;;;;;;5.69;86.50;100175.67;682771;1260;22409;-85
2023/12/14 13:47:04;;;;;;;60.40;27.90;;;;;;;5.61;86.41;100193.05;682679;1262;22239;-86
2023/12/14 14:02:41;;;;;;;43.40;21.40;;;;;;;5.59;86.39;100224.92;682691;1263;22449;-84
2023/12/14 14:18:18;;;;;;;107.40;35.20;;;;;;;5.49;85.48;100254.56;681940;1260;138748;-87
2023/12/14 14:33:56;;;;;;;;;;;;;;;5.37;84.70;100291.58;674657;1262;10137190;-84
2023/12/14 14:49:34;;;;;;;73.00;28.90;;;;;;;5.35;83.43;100313.45;682098;1263;126403;-84
2023/12/14 15:05:19;;;;;;;43.00;18.50;;;;;;;5.32;82.87;100323.35;682339;1262;23011;-82
2023/12/14 15:20:56;;;;;;;69.20;26.10;;;;;;;5.29;82.08;100337.53;682529;1262;22244;-83
2023/12/14 15:36:53;;;;;;;51.60;23.30;;;;;;;5.36;81.64;100354.30;682629;1262;22213;-84
2023/12/14 15:52:30;;;;;;;71.10;30.40;;;;;;;5.35;81.30;100374.13;682432;1262;23097;-84
2023/12/14 16:08:13;;;;;;;67.40;28.80;;;;;;;5.28;80.87;100402.34;682416;1260;138387;-82
2023/12/14 16:23:50;;;;;;;57.80;28.50;;;;;;;5.32;80.13;100440.58;682246;1266;22233;-83
2023/12/14 16:39:27;;;;;;;94.90;40.80;;;;;;;5.26;79.73;100457.59;682537;1265;139646;-83
2023/12/14 16:55:07;;;;;;;125.30;49.20;;;;;;;5.11;79.32;100473.77;682738;1263;22534;-85
2023/12/14 17:10:45;;;;;;;84.30;36.70;;;;;;;4.83;78.78;100494.35;682404;1260;138519;-83
2023/12/14 17:26:22;;;;;;;284.70;105.50;;;;;;;4.56;78.88;100519.23;682714;1261;139008;-84
2023/12/14 17:42:02;;;;;;;156.20;62.10;;;;;;;4.41;79.19;100541.91;683299;1260;139502;-86
2023/12/14 17:58:01;;;;;;;178.30;59.30;;;;;;;4.09;78.69;100545.46;683161;1260;138650;-83
2023/12/14 18:13:39;;;;;;;139.30;50.70;;;;;;;3.88;78.23;100571.55;683398;1262;22241;-84
2023/12/14 18:29:15;;;;;;;113.00;42.70;;;;;;;3.64;78.09;100585.66;683255;1263;22489;-84
2023/12/14 18:44:53;;;;;;;163.70;62.00;;;;;;;3.35;77.79;100603.26;682986;1270;137554;-84
2023/12/14 19:00:31;;;;;;;434.80;136.30;;;;;;;3.11;77.97;100629.21;682887;1263;22372;-84
2023/12/14 19:16:09;;;;;;;467.00;151.60;;;;;;;1.98;81.09;100652.21;683046;1263;22221;-84
2023/12/14 19:31:46;;;;;;;468.30;156.60;;;;;;;1.01;86.74;100670.15;682577;1263;22227;-83
2023/12/14 19:47:23;;;;;;;390.10;134.00;;;;;;;0.80;88.54;100690.33;682442;1275;23104;-82
2023/12/14 20:03:00;;;;;;;439.00;147.10;;;;;;;0.56;88.88;100720.20;682190;1263;22619;-81
2023/12/14 20:18:37;;;;;;;379.60;128.60;;;;;;;0.35;90.15;100746.13;682519;1264;23117;-81
2023/12/14 20:34:14;;;;;;;331.50;120.10;;;;;;;0.38;91.37;100767.34;682558;1263;22259;-81
2023/12/14 20:49:51;;;;;;;283.10;99.10;;;;;;;0.66;92.37;100787.83;682166;1263;23056;-81
2023/12/14 21:05:30;;;;;;;331.10;106.10;;;;;;;0.95;93.06;100804.10;682269;1263;22232;-81
2023/12/14 21:21:27;;;;;;;224.80;75.40;;;;;;;1.20;94.03;100828.41;682210;1264;22289;-81
2023/12/14 21:37:04;;;;;;;227.50;80.20;;;;;;;1.39;94.61;100853.16;682439;1263;22250;-82
2023/12/14 21:52:41;;;;;;;141.00;52.00;;;;;;;1.58;95.25;100873.42;682453;1263;23533;-81
2023/12/14 22:08:18;;;;;;;133.50;47.20;;;;;;;1.78;95.46;100887.07;682072;1262;139593;-81
2023/12/14 22:23:55;;;;;;;161.90;56.50;;;;;;;1.87;95.34;100887.27;681713;1264;139387;-82
2023/12/14 22:39:32;;;;;;;77.60;28.50;;;;;;;1.94;95.88;100906.45;682328;1273;140256;-81
2023/12/14 22:55:14;;;;;;;76.60;25.90;;;;;;;1.88;95.34;100907.55;682425;1257;142645;-81
2023/12/14 23:11:11;;;;;;;101.40;38.60;;;;;;;3.13;90.09;100915.04;682554;1259;139832;-81
2023/12/14 23:26:50;;;;;;;72.70;28.20;;;;;;;3.80;83.97;100904.54;682404;1257;139971;-81
2023/12/14 23:42:27;;;;;;;75.00;29.40;;;;;;;3.94;83.13;100936.21;682213;1257;140199;-81
2023/12/14 23:58:08;;;;;;;51.40;21.70;;;;;;;3.84;82.42;100961.29;682433;1261;140558;-81
